x

Halibut Bank (46146) Wave Buoy

11:00am - Sun 25th Jan 2015 All times are PST. -8 hours from GMT.

  • Sig Wave height 1.0ft
  • Peak Period 3s
  • Wind
    13mph
  • Sea Temp 46°f
  • Air Temp 50°f
  • Sea Pressure 1021.4mb
  • Halibut Bank
  • Halibut Bank

More Historic Weather Station data

Upgrade to MSW Pro to gain access to the past 30 days of data for over 8000 Wavebouys and Weather Stations around the globe.

Join Pro

Comparision Forecast

View Surf forecast
   
Sun 01/25 11:00am 1ft 3s 13
mph
1021.4mb 46f 50f
10:00am 1ft 3s 13 16 mph 1021.1mb 46f 50f
9:00am 1ft 3s 16 18 mph 1020.7mb 46f 49f
8:00am 1.3ft 3s 13 16 mph 1020.8mb 46f 49f
7:00am 1ft 2s 16 20 mph 1020.8mb 46f 49f
6:00am 1ft 2s 13 16 mph 1021mb 46f 48f
5:00am 1ft 2s 16 18 mph 1021.4mb 46f 50f
4:00am 1ft 2s 13 16 mph 1021.6mb 46f 49f
3:00am 1ft 2s 18 20 mph 1021.3mb 46f 50f
2:00am 0.7ft 2s 16
mph
1021.6mb 46f 50f
1:00am 0.7ft 3s 13 16 mph 1021.4mb 46f 50f
12:00am 0.7ft 2s 13 16 mph 1021.4mb 46f 50f
Sat 01/24 11:00pm 1ft 2s 13 18 mph 1021.4mb 46f 50f
10:00pm 1ft 2s 16 18 mph 1021.3mb 46f 51f
9:00pm 1ft 3s 13 16 mph 1020.8mb 46f 50f
8:00pm 0.7ft 2s 13 18 mph 1020.5mb 46f 50f
7:00pm 1ft 3s 13
mph
1021.4mb 46f 51f
6:00pm 1ft 3s 13 16 mph 1021.5mb 46f 50f
5:00pm 1ft 3s 13 18 mph 1021.4mb 46f 50f
4:00pm 1ft 3s 13 16 mph 1021.7mb 46f 49f
3:00pm 1ft 3s 13 16 mph 1022.3mb 46f 49f
2:00pm 1ft 2s 16 20 mph 1022.4mb 46f 50f
1:00pm 1ft 3s 13 18 mph 1023.4mb 46f 49f
12:00pm 1ft 2s 16 20 mph 1023.3mb 46f 49f
11:00am 1ft 2s 13 16 mph 1023.9mb 46f 48f
10:00am 1ft 2s 16
mph
1023.7mb 46f 49f
9:00am 1ft 3s 13 16 mph 1023.6mb 46f 48f
8:00am 1ft 2s 13 16 mph 1023.4mb 46f 49f
7:00am 0.7ft 2s 13
mph
1023.8mb 46f 48f
6:00am 0.3ft 4s 9 11 mph 1024mb 45f 48f
5:00am 0.3ft 4s 7 9 mph 1024.1mb 45f 48f
4:00am 0.7ft 2s 2 4 mph 1024.5mb 45f 47f
3:00am 0.7ft 4s 2 4 mph 1024.7mb 45f 47f
2:00am 1ft 3s 7
mph
1024.3mb 45f 49f
1:00am 1ft 4s 9 11 mph 1023.2mb 45f 49f
12:00am 1.3ft 3s 13 16 mph 1022.5mb 45f 49f
Fri 01/23 11:00pm 1.3ft 4s 13 16 mph 1022.7mb 45f 50f
10:00pm 2ft 4s 16 18 mph 1021.7mb 45f 49f
9:00pm 2ft 4s 18 20 mph 1021mb 45f 50f
8:00pm 2.5ft 4s 18 22 mph 1020.4mb 45f 49f
7:00pm 2.5ft 4s 18 22 mph 1020.2mb 45f 49f
6:00pm 2.5ft 4s 20 25 mph 1020.4mb 45f 49f
5:00pm 2.5ft 4s 22 25 mph 1020.3mb 45f 49f
4:00pm 2.5ft 4s 22 25 mph 1020.7mb 45f 49f
3:00pm 2.5ft 3s 22 27 mph 1021.1mb 45f 49f
2:00pm 2.5ft 4s 25 27 mph 1021.3mb 45f 49f
1:00pm 2.5ft 3s 25 27 mph 1022.2mb 45f 49f
12:00pm 2.5ft 3s 22 27 mph 1022.8mb 45f 49f
11:00am 2.5ft 4s 22 29 mph 1023.5mb 45f 48f
10:00am 2ft 3s 22 27 mph 1023.9mb 45f 48f
9:00am 1.6ft 3s 22 29 mph 1023.8mb 45f 49f
8:00am 1.6ft 3s 20 22 mph 1024.2mb 45f 47f
7:00am 1.3ft 2s 20 22 mph 1024.9mb 45f 48f
6:00am 1ft 3s 16 20 mph 1025.7mb 45f 47f
5:00am 1ft 2s 13 16 mph 1026.5mb 45f 46f
4:00am 1.3ft 2s 16 18 mph 1026.7mb 45f 46f
3:00am 1.3ft 3s 16 18 mph 1027.2mb 45f 47f
2:00am 1.3ft 3s 18 20 mph 1026.6mb 45f 47f
1:00am 1ft 2s 20 22 mph 1027.2mb 45f 47f
12:00am 1ft 2s 18 20 mph 1027.8mb 45f 47f
Thu 01/22 11:00pm 1.3ft 2s 13 16 mph 1028mb 45f 46f
10:00pm 1ft 3s 16 18 mph 1027.1mb 45f 46f
9:00pm 1.3ft 3s 13 18 mph 1027.5mb 45f 46f
8:00pm 1.3ft 3s 18 20 mph 1026.9mb 45f 45f
7:00pm 1ft 3s 16 18 mph 1026.7mb 45f 45f
6:00pm 1ft 3s 16 18 mph 1026.4mb 45f 45f
5:00pm 1ft 2s 16 18 mph 1026.2mb 45f 45f
4:00pm 1ft 2s 13 16 mph 1026.9mb 45f 45f
3:00pm 0.7ft 2s 13 18 mph 1026.7mb 45f 45f
2:00pm 0.7ft 4s 11 16 mph 1026.7mb 45f 45f
1:00pm 0.7ft 2s 11 13 mph 1026.6mb 45f 45f
12:00pm 0.7ft 2s 11 13 mph 1027.2mb 45f 45f
11:00am 0.7ft 2s 11 13 mph 1027.2mb 45f 44f
10:00am 0.7ft 6s 11 13 mph 1026.9mb 45f 44f
9:00am 0.7ft 2s 9 11 mph 1026mb 45f 44f
8:00am 1ft 2s 11 13 mph 1025.2mb 45f 44f
7:00am 0.7ft 2s 13 16 mph 1024.8mb 44f 44f
6:00am 0.7ft 2s 11 13 mph 1024.6mb 45f 44f
5:00am 0.7ft 2s 13 16 mph 1024.8mb 45f 45f
4:00am 0.7ft 2s 13 18 mph 1024.9mb 44f 44f
3:00am 0.7ft 2s 11 13 mph 1025.3mb 44f 44f
2:00am 0.7ft 2s 9 13 mph 1025.5mb 44f 44f
1:00am 0.7ft 2s 13 16 mph 1025mb 44f 44f
12:00am 0.7ft 2s 11 13 mph 1025.1mb 44f 44f
Wed 01/21 11:00pm 0.7ft 2s 9 11 mph 1025.3mb 44f 44f
10:00pm 0.3ft 2s 11 13 mph 1024.6mb 44f 44f
9:00pm 0.7ft 2s 9 11 mph 1024.2mb 44f 44f